Primrose, Pennsylvania
Current Conditions -  °F | °C
As of 9:58 PM on Tuesday 21 Oct 2014 (Local Time) from KMUI Reporting Station
Overcast Overcast  
Wind Chill: 56°   Ceiling: 6000
Heat Index: 56°   Visibility: 10mi
Dew Point: 52°   Wind: 3mph
Humidity: 85%   Direction: NA
Pressure: 29.91"   Gusts: NA
Location:  40.6882°N, 76.264°W
Report Text: KMUI 220158Z AUTO VRB03KT 10SM OVC060 14/11 A2991 RMK AO2 SLP132 T01350110 $
Loading
Personal Weather Stations






























Interactive Weather Map
Tropical Storm Tracking
New forecast layout! Learn more

10-Day Weather Forecast

Advertisements
Track Severe Weather on mobile